Time;durP1;ratioP1;P1;durP2;ratioP2;P2;SDS_P1;SDS_P2;PMS_P1;PMS_P2;Temp;Humidity;BMP_temperature;BMP_pressure;BME280_temperature;BME280_humidity;BME280_pressure;Samples;Min_cycle;Max_cycle;Signal;HPM_P1;HPM_P2
2023/11/03 00:02:30;;;;;;;0.60;0.60;;;;;;;7.89;100.00;97424.81;10498522;28;20433;-73
2023/11/03 00:07:31;;;;;;;0.50;0.50;;;;;;;7.89;100.00;97443.66;10498568;28;20039;-72
2023/11/03 00:12:33;;;;;;;1.15;1.15;;;;;;;7.90;100.00;97440.69;10498781;28;20029;-72
2023/11/03 00:17:34;;;;;;;0.40;0.40;;;;;;;7.92;100.00;97459.31;10498433;28;20044;-73
2023/11/03 00:22:35;;;;;;;0.50;0.50;;;;;;;7.97;100.00;97464.69;10497244;28;20511;-72
2023/11/03 00:27:35;;;;;;;0.40;0.40;;;;;;;8.04;100.00;97473.34;10498383;28;20093;-72
2023/11/03 00:32:35;;;;;;;0.40;0.40;;;;;;;8.09;100.00;97469.84;10496925;28;20100;-72
2023/11/03 00:37:37;;;;;;;0.50;0.50;;;;;;;8.15;100.00;97479.56;10514162;28;20036;-72
2023/11/03 00:42:38;;;;;;;5.25;2.25;;;;;;;8.22;100.00;97490.09;10496449;28;20037;-73
2023/11/03 00:47:38;;;;;;;0.40;0.40;;;;;;;8.27;100.00;97495.50;10497062;28;20029;-73
2023/11/03 00:52:38;;;;;;;0.50;0.50;;;;;;;8.26;100.00;97488.47;10498813;28;20392;-73
2023/11/03 00:57:39;;;;;;;0.30;0.30;;;;;;;8.36;100.00;97497.41;10497467;28;20040;-71
2023/11/03 01:02:43;;;;;;;0.77;0.77;;;;;;;8.40;100.00;97523.88;10495977;28;20047;-72
2023/11/03 01:07:43;;;;;;;1.48;1.48;;;;;;;8.41;100.00;97512.81;10496745;28;20090;-72
2023/11/03 01:12:45;;;;;;;1.13;1.13;;;;;;;8.45;100.00;97532.75;10495410;28;20086;-73
2023/11/03 01:17:49;;;;;;;0.38;0.38;;;;;;;8.44;100.00;97531.16;10495995;28;20093;-73
2023/11/03 01:22:49;;;;;;;0.60;0.60;;;;;;;8.39;100.00;97541.91;10497640;28;20071;-73
2023/11/03 01:27:51;;;;;;;0.45;0.45;;;;;;;8.47;100.00;97532.50;10495237;28;20047;-73
2023/11/03 01:32:55;;;;;;;0.40;0.40;;;;;;;8.44;100.00;97536.56;10495760;28;20025;-72
2023/11/03 01:37:56;;;;;;;0.40;0.40;;;;;;;8.52;100.00;97543.28;10495075;28;20040;-73
2023/11/03 01:42:57;;;;;;;0.40;0.40;;;;;;;8.64;100.00;97541.16;10495467;28;20036;-73
2023/11/03 01:47:57;;;;;;;0.40;0.40;;;;;;;8.68;100.00;97561.16;10494045;28;20044;-73
2023/11/03 01:52:57;;;;;;;0.40;0.40;;;;;;;8.75;100.00;97533.91;10494215;28;20040;-73
2023/11/03 01:57:58;;;;;;;0.43;0.43;;;;;;;8.74;100.00;97527.72;10493625;28;20334;-73
2023/11/03 02:02:58;;;;;;;1.50;1.50;;;;;;;8.75;100.00;97563.59;10494721;28;20028;-73
2023/11/03 02:07:59;;;;;;;0.40;0.40;;;;;;;8.85;100.00;97559.00;10496064;28;20489;-74
2023/11/03 02:12:59;;;;;;;0.47;0.47;;;;;;;8.89;100.00;97563.88;10492623;28;20044;-73
2023/11/03 02:17:59;;;;;;;0.30;0.30;;;;;;;8.93;100.00;97551.44;10493981;28;20037;-74
2023/11/03 02:23:00;;;;;;;0.47;0.47;;;;;;;9.04;100.00;97563.88;10495502;28;20059;-73
2023/11/03 02:28:00;;;;;;;0.47;0.47;;;;;;;9.08;100.00;97579.25;10494959;28;20094;-73
2023/11/03 02:33:00;;;;;;;0.50;0.50;;;;;;;9.16;100.00;97588.72;10494504;28;20085;-73
2023/11/03 02:38:01;;;;;;;3.35;3.25;;;;;;;9.15;100.00;97584.38;10495824;28;20035;-73
2023/11/03 02:43:01;;;;;;;0.40;0.40;;;;;;;9.02;100.00;97587.63;10494074;28;20498;-72
2023/11/03 02:48:02;;;;;;;0.90;0.90;;;;;;;9.07;100.00;97588.44;10493643;28;20404;-73
2023/11/03 02:53:02;;;;;;;0.40;0.40;;;;;;;9.14;100.00;97595.47;10495069;28;20040;-73
2023/11/03 02:58:02;;;;;;;3.47;1.15;;;;;;;9.16;100.00;97602.22;10502514;28;20033;-73
2023/11/03 03:03:06;;;;;;;0.93;0.93;;;;;;;9.06;100.00;97586.00;10499757;28;20037;-74
2023/11/03 03:08:06;;;;;;;0.50;0.50;;;;;;;8.96;100.00;97610.28;10502202;28;20032;-74
2023/11/03 03:13:07;;;;;;;0.40;0.40;;;;;;;8.91;100.00;97616.50;10500486;28;20020;-74
2023/11/03 03:18:08;;;;;;;2.55;2.45;;;;;;;9.01;100.00;97619.22;10500619;28;20040;-74
2023/11/03 03:23:09;;;;;;;0.38;0.38;;;;;;;9.15;100.00;97615.97;10499357;28;20476;-74
2023/11/03 03:28:09;;;;;;;1.38;1.33;;;;;;;9.29;100.00;97627.88;10499779;28;20059;-73
2023/11/03 03:33:09;;;;;;;1.58;1.50;;;;;;;9.46;100.00;97635.72;10500760;28;20029;-73
2023/11/03 03:38:10;;;;;;;0.63;0.63;;;;;;;9.61;100.00;97634.91;10498732;28;20474;-73
2023/11/03 03:43:10;;;;;;;1.10;1.10;;;;;;;9.63;100.00;97640.81;10500847;28;20432;-73
2023/11/03 03:48:10;;;;;;;1.98;1.77;;;;;;;9.68;100.00;97660.56;10515184;28;20033;-73
2023/11/03 03:53:11;;;;;;;33.83;2.15;;;;;;;9.71;100.00;97667.31;10499124;28;20111;-73
2023/11/03 03:58:11;;;;;;;1.35;1.35;;;;;;;9.78;100.00;97660.53;10499217;28;20052;-72
2023/11/03 04:03:12;;;;;;;0.40;0.40;;;;;;;9.75;100.00;97690.00;10498490;28;20123;-72
2023/11/03 04:08:12;;;;;;;2.72;2.08;;;;;;;9.78;100.00;97694.88;10498686;28;20119;-74
2023/11/03 04:13:12;;;;;;;0.77;0.77;;;;;;;9.75;100.00;97715.13;10498601;28;20028;-73
2023/11/03 04:18:13;;;;;;;0.50;0.50;;;;;;;9.71;100.00;97716.75;10513878;28;20101;-73
2023/11/03 04:23:13;;;;;;;0.40;0.40;;;;;;;9.69;100.00;97716.19;10515137;28;20471;-74
2023/11/03 04:28:14;;;;;;;0.50;0.50;;;;;;;9.65;100.00;97723.22;10497161;28;20194;-74
2023/11/03 04:33:14;;;;;;;0.40;0.40;;;;;;;9.60;100.00;97735.91;10513119;28;20053;-73
2023/11/03 04:38:15;;;;;;;1.55;1.55;;;;;;;9.62;100.00;97749.97;10514302;28;20456;-73
2023/11/03 04:43:15;;;;;;;0.30;0.30;;;;;;;9.63;100.00;97755.09;10495988;28;20028;-72
2023/11/03 04:48:15;;;;;;;0.50;0.50;;;;;;;9.62;100.00;97760.78;10495628;28;20490;-73
2023/11/03 04:53:16;;;;;;;0.40;0.40;;;;;;;9.62;100.00;97761.59;10497004;28;20029;-73
2023/11/03 04:58:17;;;;;;;0.90;0.90;;;;;;;9.61;100.00;97764.56;10496664;28;20039;-73
2023/11/03 05:03:19;;;;;;;0.50;0.50;;;;;;;9.62;100.00;97764.28;10494698;28;20187;-74
2023/11/03 05:08:19;;;;;;;0.52;0.52;;;;;;;9.58;100.00;97765.13;10512843;28;20123;-73
2023/11/03 05:13:19;;;;;;;0.40;0.40;;;;;;;9.66;100.00;97778.06;10496953;28;20075;-73
2023/11/03 05:18:20;;;;;;;0.50;0.50;;;;;;;9.54;100.00;97781.03;10511329;28;20021;-72
2023/11/03 05:23:20;;;;;;;0.68;0.68;;;;;;;9.47;100.00;97800.19;10496481;28;20035;-72
2023/11/03 05:28:21;;;;;;;0.50;0.50;;;;;;;9.48;100.00;97806.41;10496045;28;20036;-72
2023/11/03 05:33:21;;;;;;;0.40;0.40;;;;;;;9.42;100.00;97821.78;10494585;28;20418;-72
2023/11/03 05:38:22;;;;;;;0.77;0.77;;;;;;;9.43;100.00;97836.09;10494243;28;20036;-72
2023/11/03 05:43:22;;;;;;;1.40;1.40;;;;;;;9.41;100.00;97851.75;10494394;28;20112;-73
2023/11/03 05:48:22;;;;;;;0.50;0.50;;;;;;;9.37;100.00;97856.88;10509810;28;20032;-73
2023/11/03 05:53:23;;;;;;;0.43;0.43;;;;;;;9.23;100.00;97863.84;10494533;28;20033;-73
2023/11/03 05:58:24;;;;;;;0.40;0.40;;;;;;;9.11;100.00;97866.75;10494744;28;20068;-73
2023/11/03 06:03:25;;;;;;;0.50;0.50;;;;;;;9.08;100.00;97886.97;10495148;28;20457;-73
2023/11/03 06:08:26;;;;;;;0.30;0.30;;;;;;;8.95;100.00;97897.44;10495112;28;20104;-73
2023/11/03 06:13:26;;;;;;;0.32;0.32;;;;;;;8.88;100.00;97904.94;10494287;28;20041;-72
2023/11/03 06:18:27;;;;;;;0.80;0.80;;;;;;;8.82;100.00;97936.47;10493497;28;20048;-73
2023/11/03 06:23:27;;;;;;;1.52;1.48;;;;;;;8.89;100.00;97934.34;10494043;28;20041;-72
2023/11/03 06:28:27;;;;;;;1.38;1.27;;;;;;;8.89;100.00;97947.84;10496491;28;20036;-73
2023/11/03 06:33:28;;;;;;;0.40;0.40;;;;;;;8.87;100.00;97943.78;10502682;28;20090;-73
2023/11/03 06:38:29;;;;;;;0.55;0.55;;;;;;;8.80;100.00;97952.91;10501056;28;20388;-72
2023/11/03 06:43:30;;;;;;;0.68;0.68;;;;;;;8.82;100.00;97979.66;10502674;28;20114;-73
2023/11/03 06:48:30;;;;;;;0.40;0.40;;;;;;;8.85;100.00;97987.22;10503249;28;20365;-73
2023/11/03 06:53:32;;;;;;;0.40;0.40;;;;;;;8.85;100.00;97989.94;10501473;28;20428;-72
2023/11/03 06:58:33;;;;;;;0.40;0.40;;;;;;;8.81;100.00;97996.91;10501279;28;20040;-72
2023/11/03 07:03:33;;;;;;;0.50;0.50;;;;;;;8.85;100.00;98022.31;10499893;28;20408;-73
2023/11/03 07:08:34;;;;;;;1.27;1.27;;;;;;;8.96;100.00;98013.22;10500161;28;20033;-73
2023/11/03 07:13:34;;;;;;;0.43;0.43;;;;;;;8.99;100.00;98023.50;10500434;28;20036;-73
2023/11/03 07:18:34;;;;;;;0.95;0.95;;;;;;;8.99;100.00;98022.69;10501523;28;20345;-72
2023/11/03 07:23:35;;;;;;;0.85;0.85;;;;;;;9.00;100.00;98024.31;10502485;28;20044;-73
2023/11/03 07:28:38;;;;;;;0.45;0.45;;;;;;;8.99;100.00;98028.88;10484138;28;20425;-73
2023/11/03 07:33:40;;;;;;;0.30;0.30;;;;;;;9.10;100.00;98040.59;10500180;28;20029;-73
2023/11/03 07:38:40;;;;;;;0.40;0.40;;;;;;;9.16;100.00;98036.88;10499008;28;20128;-72
2023/11/03 07:43:40;;;;;;;0.93;0.93;;;;;;;9.14;100.00;98049.00;10499937;28;20037;-72
2023/11/03 07:48:41;;;;;;;13.45;4.20;;;;;;;9.22;100.00;98051.19;10498951;28;20087;-73
2023/11/03 07:53:41;;;;;;;25.80;5.25;;;;;;;9.33;100.00;98069.13;10498171;28;20041;-73
2023/11/03 07:58:42;;;;;;;0.40;0.40;;;;;;;9.44;100.00;98064.59;10482378;28;20452;-72
2023/11/03 08:03:43;;;;;;;1.45;1.35;;;;;;;9.42;100.00;98075.66;10499563;28;20098;-72
2023/11/03 08:08:44;;;;;;;0.63;0.63;;;;;;;9.36;100.00;98082.09;10498338;28;20032;-73
2023/11/03 08:13:44;;;;;;;0.35;0.35;;;;;;;9.31;100.00;98082.06;10502465;28;20032;-73
2023/11/03 08:18:45;;;;;;;2.60;2.17;;;;;;;9.37;100.00;98093.72;10504992;28;20099;-72
2023/11/03 08:23:45;;;;;;;2.13;1.98;;;;;;;9.34;100.00;98102.34;10500136;28;20044;-73
2023/11/03 08:28:46;;;;;;;17.33;1.45;;;;;;;9.41;100.00;98102.94;10498812;28;20036;-73
2023/11/03 08:33:46;;;;;;;0.40;0.40;;;;;;;9.36;100.00;98111.81;10500042;28;20032;-73
2023/11/03 08:38:47;;;;;;;0.40;0.40;;;;;;;9.31;100.00;98117.16;10498023;28;20041;-72
2023/11/03 08:43:48;;;;;;;0.45;0.45;;;;;;;9.31;100.00;98127.97;10497258;28;20055;-72
2023/11/03 08:48:48;;;;;;;4.60;4.22;;;;;;;9.26;100.00;98136.03;10497355;28;20036;-72
2023/11/03 08:53:49;;;;;;;0.50;0.50;;;;;;;9.18;100.00;98147.28;10494357;28;20037;-72
2023/11/03 08:58:49;;;;;;;0.50;0.50;;;;;;;9.28;100.00;98150.91;10495312;28;20059;-72
2023/11/03 09:03:50;;;;;;;0.50;0.50;;;;;;;9.54;100.00;98165.44;10496840;28;20056;-71
2023/11/03 09:08:51;;;;;;;0.50;0.50;;;;;;;9.75;100.00;98161.00;10495104;28;20032;-72
2023/11/03 09:13:54;;;;;;;0.50;0.50;;;;;;;9.85;100.00;98184.59;10478029;28;20055;-71
2023/11/03 09:18:57;;;;;;;0.43;0.43;;;;;;;9.85;100.00;98181.88;10496225;28;20040;-71
2023/11/03 09:23:58;;;;;;;0.45;0.45;;;;;;;9.70;100.00;98184.47;10495688;28;20036;-71
2023/11/03 09:29:00;;;;;;;0.40;0.40;;;;;;;9.55;100.00;98199.50;10496429;28;20043;-72
2023/11/03 09:34:01;;;;;;;0.85;0.85;;;;;;;9.58;100.00;98198.16;10497166;28;20131;-72
2023/11/03 09:39:04;;;;;;;0.40;0.40;;;;;;;9.53;100.00;98217.03;10495716;28;20081;-72
2023/11/03 09:44:05;;;;;;;0.30;0.30;;;;;;;9.69;100.00;98209.88;10494869;28;20123;-72
2023/11/03 09:49:06;;;;;;;0.50;0.50;;;;;;;9.51;100.00;98220.00;10495256;28;20044;-73
2023/11/03 09:54:07;;;;;;;1.95;1.85;;;;;;;9.40;100.00;98218.25;10493495;28;20032;-73
2023/11/03 09:59:07;;;;;;;0.40;0.40;;;;;;;9.44;100.00;98224.78;10495540;28;20482;-72
2023/11/03 10:04:09;;;;;;;2.10;2.00;;;;;;;9.55;100.00;98226.50;10477773;28;20028;-73
2023/11/03 10:09:13;;;;;;;0.50;0.50;;;;;;;9.58;100.00;98224.38;10494947;28;20024;-73
2023/11/03 10:14:13;;;;;;;0.30;0.30;;;;;;;9.61;100.00;98237.38;10494844;28;20439;-73
2023/11/03 10:19:13;;;;;;;2.08;1.88;;;;;;;9.80;100.00;98243.22;10493249;28;20060;-72
2023/11/03 10:24:15;;;;;;;0.65;0.65;;;;;;;9.91;100.00;98234.91;10494632;28;20033;-72
2023/11/03 10:29:15;;;;;;;0.50;0.50;;;;;;;10.11;100.00;98233.44;10494412;28;20399;-72
2023/11/03 10:34:19;;;;;;;0.77;0.77;;;;;;;10.39;100.00;98241.22;10476069;28;20028;-72
2023/11/03 10:39:19;;;;;;;0.70;0.70;;;;;;;10.31;100.00;98238.22;10494615;28;20028;-72
2023/11/03 10:44:20;;;;;;;0.40;0.40;;;;;;;10.37;100.00;98231.72;10491654;28;20107;-71
2023/11/03 10:49:21;;;;;;;0.50;0.50;;;;;;;11.00;100.00;98242.59;10493756;28;20052;-71
2023/11/03 10:54:37;;;;;;;20.27;5.47;;;;;;;11.52;100.00;98233.50;10492925;28;20111;-71
2023/11/03 10:59:39;;;;;;;13.97;5.67;;;;;;;11.19;100.00;98257.28;10478276;28;20028;-71
2023/11/03 11:04:54;;;;;;;4.03;2.95;;;;;;;11.23;100.00;98254.84;10493560;28;20085;-71
2023/11/03 11:09:55;;;;;;;16.77;2.85;;;;;;;11.27;100.00;98255.97;10478390;28;20032;-71
2023/11/03 11:14:55;;;;;;;11.32;3.70;;;;;;;11.62;100.00;98250.63;10494468;28;20079;-71
2023/11/03 11:19:55;;;;;;;25.20;4.15;;;;;;;12.68;100.00;98260.88;10499367;28;20048;-71
2023/11/03 11:25:01;;;;;;;11.80;4.53;;;;;;;13.59;100.00;98256.97;10499248;28;20107;-70
2023/11/03 11:30:03;;;;;;;9.32;3.75;;;;;;;13.12;100.00;98271.84;10500127;28;20058;-70
2023/11/03 11:35:08;;;;;;;10.25;3.65;;;;;;;13.36;100.00;98269.31;10498473;28;20131;-71
2023/11/03 11:40:10;;;;;;;13.25;3.80;;;;;;;13.61;100.00;98284.66;10500663;28;20082;-70
2023/11/03 11:45:18;;;;;;;6.15;4.47;;;;;;;13.76;100.00;98283.78;10499526;28;20040;-69
2023/11/03 11:50:21;;;;;;;13.63;4.90;;;;;;;12.97;100.00;98288.22;10499132;28;20086;-69
2023/11/03 11:55:22;;;;;;;7.93;2.90;;;;;;;13.81;100.00;98289.16;10499054;28;20112;-70
2023/11/03 12:00:22;;;;;;;10.15;3.13;;;;;;;14.15;100.00;98297.34;10499959;28;20032;-69
2023/11/03 12:05:24;;;;;;;6.85;2.60;;;;;;;13.67;100.00;98301.78;10498828;28;20119;-69
2023/11/03 12:10:24;;;;;;;3.58;3.05;;;;;;;12.76;100.00;98314.59;10501812;28;20033;-69
2023/11/03 12:15:25;;;;;;;8.90;3.08;;;;;;;12.14;100.00;98332.03;10497097;28;20388;-69
2023/11/03 12:20:25;;;;;;;15.05;3.67;;;;;;;11.89;100.00;98330.91;10497573;28;20139;-69
2023/11/03 12:25:26;;;;;;;13.32;4.07;;;;;;;11.75;100.00;98316.25;10497306;28;20033;-69
2023/11/03 12:30:26;;;;;;;11.43;4.22;;;;;;;11.88;100.00;98355.63;10497829;28;20037;-69
2023/11/03 12:35:31;;;;;;;10.93;3.53;;;;;;;11.72;100.00;98363.69;10498588;28;20422;-69
2023/11/03 12:40:31;;;;;;;8.60;4.13;;;;;;;11.64;100.00;98356.03;10496250;28;20067;-69
2023/11/03 12:45:32;;;;;;;8.32;3.10;;;;;;;11.52;100.00;98361.72;10497215;28;20064;-69
2023/11/03 12:50:34;;;;;;;5.85;3.53;;;;;;;11.27;100.00;98359.72;10497195;28;20068;-69
2023/11/03 12:55:34;;;;;;;3.78;2.95;;;;;;;11.07;100.00;98370.44;10497509;28;20066;-69
2023/11/03 13:00:36;;;;;;;17.23;3.83;;;;;;;11.03;100.00;98386.41;10496276;28;20033;-69
2023/11/03 13:05:37;;;;;;;30.30;3.47;;;;;;;10.83;100.00;98381.69;10495077;28;20040;-69
2023/11/03 13:10:40;;;;;;;10.65;3.97;;;;;;;10.87;100.00;98355.72;10496545;28;20163;-69
2023/11/03 13:15:40;;;;;;;3.95;2.67;;;;;;;10.86;100.00;98378.47;10496030;28;20052;-69
2023/11/03 13:20:41;;;;;;;6.30;2.88;;;;;;;10.71;100.00;98383.75;10494721;28;20131;-70
2023/11/03 13:25:41;;;;;;;4.63;2.75;;;;;;;10.62;100.00;98390.72;10495900;28;20120;-70
2023/11/03 13:30:44;;;;;;;4.10;2.65;;;;;;;10.50;100.00;98392.78;10493581;28;20048;-70
2023/11/03 13:35:45;;;;;;;12.15;3.70;;;;;;;10.46;100.00;98389.78;10494621;28;20036;-69
2023/11/03 13:40:50;;;;;;;4.68;2.42;;;;;;;10.43;100.00;98406.53;10476881;28;20032;-69
2023/11/03 13:45:52;;;;;;;13.77;3.28;;;;;;;10.55;100.00;98406.38;10495720;28;20039;-70
2023/11/03 13:50:52;;;;;;;4.10;2.38;;;;;;;10.79;100.00;98409.56;10495684;28;20107;-70
2023/11/03 13:55:52;;;;;;;5.45;2.83;;;;;;;10.90;100.00;98403.94;10512373;28;20048;-69
2023/11/03 14:00:53;;;;;;;11.52;3.40;;;;;;;10.75;100.00;98400.28;10496131;28;20037;-70
2023/11/03 14:05:53;;;;;;;7.57;2.67;;;;;;;10.42;100.00;98400.31;10494445;28;20413;-70
2023/11/03 14:10:54;;;;;;;4.38;2.03;;;;;;;10.48;100.00;98402.00;10495079;28;20131;-69
2023/11/03 14:15:54;;;;;;;4.22;2.58;;;;;;;10.66;100.00;98414.31;10509351;28;20468;-70
2023/11/03 14:20:58;;;;;;;5.47;3.03;;;;;;;10.63;100.00;98419.44;10493871;28;20067;-70
2023/11/03 14:25:58;;;;;;;7.10;3.78;;;;;;;10.42;100.00;98434.69;10493037;28;20502;-70
2023/11/03 14:30:59;;;;;;;2.08;1.55;;;;;;;10.21;100.00;98428.22;10476807;28;20047;-70
2023/11/03 14:35:59;;;;;;;1.75;1.65;;;;;;;10.14;100.00;98439.25;10493047;28;20064;-69
2023/11/03 14:41:02;;;;;;;8.95;2.17;;;;;;;10.05;100.00;98439.94;10493251;28;20052;-69
2023/11/03 14:46:05;;;;;;;3.95;2.17;;;;;;;10.07;100.00;98454.03;10494096;28;20063;-69
2023/11/03 14:51:05;;;;;;;4.90;1.92;;;;;;;9.93;100.00;98461.75;10498661;28;20496;-69
2023/11/03 14:56:06;;;;;;;2.35;2.00;;;;;;;9.94;100.00;98456.06;10501916;28;20064;-69
2023/11/03 15:01:07;;;;;;;13.60;2.83;;;;;;;10.17;100.00;98464.97;10501726;28;20028;-69
2023/11/03 15:06:08;;;;;;;2.67;1.85;;;;;;;10.17;100.00;98470.38;10501329;28;20468;-69
2023/11/03 15:11:11;;;;;;;7.95;2.30;;;;;;;9.94;100.00;98458.78;10501448;28;20060;-69
2023/11/03 15:16:13;;;;;;;5.85;1.83;;;;;;;9.85;100.00;98464.88;10500855;28;20502;-69
2023/11/03 15:21:14;;;;;;;7.50;2.33;;;;;;;9.81;100.00;98469.16;10499125;28;20179;-69
2023/11/03 15:26:14;;;;;;;2.90;1.55;;;;;;;9.95;100.00;98473.91;10484782;28;20036;-69
2023/11/03 15:31:15;;;;;;;15.27;2.17;;;;;;;9.99;100.00;98477.78;10501201;28;20063;-69
2023/11/03 15:36:19;;;;;;;4.82;1.88;;;;;;;10.02;100.00;98489.97;10500140;28;20040;-69
2023/11/03 15:41:19;;;;;;;7.78;2.28;;;;;;;10.14;100.00;98493.31;10499429;28;20024;-69
2023/11/03 15:46:21;;;;;;;5.65;2.50;;;;;;;10.13;100.00;98488.19;10500742;28;20139;-69
2023/11/03 15:51:22;;;;;;;5.80;2.15;;;;;;;10.13;100.00;98486.28;10498919;28;20024;-69
2023/11/03 15:56:23;;;;;;;8.45;2.78;;;;;;;10.15;100.00;98499.56;10499512;28;20449;-69
2023/11/03 16:01:23;;;;;;;6.97;1.63;;;;;;;10.13;100.00;98509.81;10499367;28;20056;-69
2023/11/03 16:06:27;;;;;;;1.77;1.42;;;;;;;10.08;100.00;98504.34;10499666;28;20036;-69
2023/11/03 16:11:27;;;;;;;3.60;2.53;;;;;;;10.06;100.00;98507.31;10499363;28;20036;-69
2023/11/03 16:16:27;;;;;;;5.38;1.92;;;;;;;9.94;100.00;98507.44;10499309;28;20094;-69
2023/11/03 16:21:29;;;;;;;1.40;1.30;;;;;;;9.89;100.00;98515.50;10498878;28;20064;-68
2023/11/03 16:26:31;;;;;;;5.25;1.45;;;;;;;9.82;100.00;98511.34;10495761;28;20472;-68
2023/11/03 16:31:31;;;;;;;5.80;1.77;;;;;;;9.80;100.00;98530.53;10496889;28;20043;-68
2023/11/03 16:36:32;;;;;;;6.25;2.08;;;;;;;9.67;100.00;98537.09;10495914;28;20491;-68
2023/11/03 16:41:32;;;;;;;3.97;1.63;;;;;;;9.75;100.00;98544.75;10480061;28;20032;-68
2023/11/03 16:46:32;;;;;;;6.07;1.75;;;;;;;9.86;100.00;98544.91;10497596;28;20045;-69
2023/11/03 16:51:33;;;;;;;5.85;1.88;;;;;;;9.90;100.00;98540.66;10496691;28;20123;-69
2023/11/03 16:56:34;;;;;;;3.00;1.80;;;;;;;9.81;100.00;98537.56;10496120;28;20045;-69
2023/11/03 17:01:35;;;;;;;5.30;1.88;;;;;;;9.82;100.00;98541.06;10495776;28;20042;-69
2023/11/03 17:06:35;;;;;;;4.72;1.95;;;;;;;9.84;100.00;98557.88;10495863;28;20024;-69
2023/11/03 17:11:36;;;;;;;5.15;2.22;;;;;;;9.70;100.00;98546.56;10494956;28;20033;-69
2023/11/03 17:16:36;;;;;;;1.02;0.98;;;;;;;9.50;100.00;98547.13;10495656;28;20042;-69
2023/11/03 17:21:37;;;;;;;12.35;2.17;;;;;;;9.37;100.00;98542.88;10495471;28;20460;-69
2023/11/03 17:26:38;;;;;;;5.20;1.98;;;;;;;9.37;100.00;98545.56;10496589;28;20043;-69
2023/11/03 17:31:38;;;;;;;6.63;1.92;;;;;;;9.35;100.00;98549.59;10494712;28;20033;-69
2023/11/03 17:36:40;;;;;;;5.57;2.40;;;;;;;9.45;100.00;98557.88;10495119;28;20521;-68
2023/11/03 17:41:40;;;;;;;6.60;2.08;;;;;;;9.37;100.00;98544.75;10495259;28;20028;-69
2023/11/03 17:46:41;;;;;;;5.65;2.80;;;;;;;9.19;100.00;98551.22;10494730;28;20384;-68
2023/11/03 17:51:42;;;;;;;10.10;2.22;;;;;;;9.08;100.00;98545.66;10496018;28;20029;-68
2023/11/03 17:56:44;;;;;;;1.60;1.40;;;;;;;9.00;100.00;98558.78;10510287;28;20040;-68
2023/11/03 18:01:45;;;;;;;7.05;2.35;;;;;;;8.94;100.00;98562.47;10494470;28;20052;-68
2023/11/03 18:06:45;;;;;;;1.75;1.65;;;;;;;8.80;100.00;98567.31;10498514;28;20044;-68
2023/11/03 18:11:48;;;;;;;2.53;2.33;;;;;;;8.77;100.00;98554.31;10493829;28;20427;-68
2023/11/03 18:16:49;;;;;;;2.05;1.58;;;;;;;8.71;100.00;98568.78;10494001;28;20024;-68
2023/11/03 18:21:49;;;;;;;1.98;1.83;;;;;;;8.74;100.00;98574.53;10492321;28;20103;-68
2023/11/03 18:26:50;;;;;;;2.05;1.30;;;;;;;8.75;100.00;98572.66;10506895;28;20086;-68
2023/11/03 18:31:51;;;;;;;12.25;2.28;;;;;;;8.68;100.00;98553.06;10512158;28;20033;-68
2023/11/03 18:36:52;;;;;;;2.80;2.03;;;;;;;8.56;100.00;98547.75;10507265;28;20052;-68
2023/11/03 18:41:52;;;;;;;1.85;1.70;;;;;;;8.43;100.00;98556.97;10507698;28;20090;-68
2023/11/03 18:46:53;;;;;;;1.92;1.80;;;;;;;8.41;100.00;98548.28;10506684;28;20071;-69
2023/11/03 18:51:53;;;;;;;4.22;1.52;;;;;;;8.35;100.00;98550.03;10508222;28;20090;-68
2023/11/03 18:56:54;;;;;;;2.00;1.85;;;;;;;8.22;100.00;98539.53;10506477;28;20041;-68
2023/11/03 19:01:54;;;;;;;12.20;2.20;;;;;;;8.19;100.00;98541.88;10507624;28;20084;-68
2023/11/03 19:06:57;;;;;;;1.75;1.65;;;;;;;8.11;100.00;98546.63;10507286;28;20491;-68
2023/11/03 19:11:59;;;;;;;2.20;2.03;;;;;;;8.06;100.00;98537.59;10506301;28;20112;-68
2023/11/03 19:17:01;;;;;;;2.10;1.20;;;;;;;8.00;100.00;98546.63;10506968;28;20043;-68
2023/11/03 19:22:04;;;;;;;3.80;1.83;;;;;;;7.90;100.00;98549.94;10505028;28;20480;-68
2023/11/03 19:27:04;;;;;;;1.77;1.25;;;;;;;7.92;100.00;98554.03;10506241;28;20036;-68
2023/11/03 19:32:08;;;;;;;4.95;1.13;;;;;;;7.85;100.00;98544.47;10506586;28;20123;-68
2023/11/03 19:37:13;;;;;;;1.58;1.42;;;;;;;7.85;100.00;98547.16;10503167;28;20111;-70
2023/11/03 19:42:13;;;;;;;2.97;1.60;;;;;;;7.78;100.00;98551.84;10500794;28;20047;-70
2023/11/03 19:47:14;;;;;;;2.15;1.60;;;;;;;7.75;100.00;98549.63;10499579;28;20483;-69
2023/11/03 19:52:16;;;;;;;4.03;1.92;;;;;;;7.75;100.00;98546.91;10497782;28;20059;-69
2023/11/03 19:57:16;;;;;;;4.72;2.60;;;;;;;7.73;100.00;98554.44;10515609;28;20411;-72
2023/11/03 20:02:17;;;;;;;2.53;2.33;;;;;;;7.73;100.00;98546.34;10501423;28;20088;-72
2023/11/03 20:07:18;;;;;;;5.05;1.67;;;;;;;7.74;100.00;98535.31;10498817;28;20082;-69
2023/11/03 20:12:18;;;;;;;2.63;1.80;;;;;;;7.68;100.00;98545.16;10497935;28;20055;-71
2023/11/03 20:17:22;;;;;;;5.65;2.58;;;;;;;7.80;100.00;98549.72;10498687;28;20043;-70
2023/11/03 20:22:22;;;;;;;10.65;2.72;;;;;;;7.73;100.00;98555.25;10496481;28;20494;-71
2023/11/03 20:27:23;;;;;;;4.53;2.67;;;;;;;7.71;100.00;98551.16;10498816;28;20032;-71
2023/11/03 20:32:23;;;;;;;6.22;1.88;;;;;;;7.69;100.00;98557.59;10500383;28;20036;-72
2023/11/03 20:37:23;;;;;;;5.55;2.85;;;;;;;7.58;100.00;98555.72;10499656;28;20120;-71
2023/11/03 20:42:24;;;;;;;4.80;2.30;;;;;;;7.59;100.00;98543.88;10497803;28;20349;-68
2023/11/03 20:47:24;;;;;;;2.80;2.55;;;;;;;7.60;100.00;98545.53;10496317;28;20131;-71
2023/11/03 20:52:25;;;;;;;6.68;2.38;;;;;;;7.52;100.00;98534.31;10496474;28;20043;-70
2023/11/03 20:57:25;;;;;;;3.90;2.28;;;;;;;7.50;100.00;98533.72;10497642;28;20106;-69
2023/11/03 21:02:25;;;;;;;4.43;2.05;;;;;;;7.57;100.00;98529.03;10480067;28;20024;-70
2023/11/03 21:07:26;;;;;;;2.58;2.38;;;;;;;7.43;100.00;98533.84;10496948;28;20089;-70
2023/11/03 21:12:26;;;;;;;2.42;2.22;;;;;;;7.51;100.00;98527.28;10496781;28;20450;-69
2023/11/03 21:17:27;;;;;;;3.90;2.42;;;;;;;7.41;100.00;98530.56;10512127;28;20094;-70
2023/11/03 21:22:28;;;;;;;3.95;2.88;;;;;;;7.41;100.00;98530.56;10495646;28;20056;-69
2023/11/03 21:27:28;;;;;;;5.32;2.70;;;;;;;7.38;100.00;98522.97;10495458;28;20341;-69
2023/11/03 21:32:32;;;;;;;5.78;3.67;;;;;;;7.44;100.00;98519.34;10496036;28;20029;-69
2023/11/03 21:37:33;;;;;;;3.58;2.67;;;;;;;7.35;100.00;98513.47;10496438;28;20079;-70
2023/11/03 21:42:33;;;;;;;4.00;1.98;;;;;;;7.30;100.00;98496.38;10495592;28;20052;-69
2023/11/03 21:47:33;;;;;;;6.40;2.90;;;;;;;7.36;100.00;98508.91;10497479;28;20396;-69
2023/11/03 21:52:34;;;;;;;2.17;2.08;;;;;;;7.28;100.00;98488.56;10497242;28;20040;-69
2023/11/03 21:57:37;;;;;;;2.97;2.20;;;;;;;7.38;100.00;98498.75;10512370;28;20044;-69
2023/11/03 22:02:38;;;;;;;2.80;2.30;;;;;;;7.44;100.00;98495.91;10495146;28;20036;-68
2023/11/03 22:07:39;;;;;;;1.50;1.45;;;;;;;7.61;100.00;98509.47;10495168;28;20039;-70
2023/11/03 22:12:39;;;;;;;5.60;3.20;;;;;;;7.78;100.00;98487.19;10494824;28;20036;-70
2023/11/03 22:17:40;;;;;;;6.47;2.22;;;;;;;7.90;100.00;98482.56;10495456;28;20064;-70
2023/11/03 22:22:40;;;;;;;3.28;2.58;;;;;;;8.06;100.00;98467.53;10495139;28;20052;-70
2023/11/03 22:27:41;;;;;;;5.20;2.38;;;;;;;8.17;100.00;98480.16;10494928;28;20033;-70
2023/11/03 22:32:41;;;;;;;2.42;2.20;;;;;;;8.24;100.00;98477.28;10495103;28;20036;-70
2023/11/03 22:37:41;;;;;;;5.50;3.92;;;;;;;8.33;100.00;98476.66;10494105;28;20511;-70
2023/11/03 22:42:43;;;;;;;4.03;3.63;;;;;;;8.36;100.00;98461.88;10495203;28;20078;-70
2023/11/03 22:47:44;;;;;;;5.50;3.65;;;;;;;8.42;100.00;98470.88;10494856;28;20124;-70
2023/11/03 22:52:45;;;;;;;4.22;3.33;;;;;;;8.41;100.00;98461.16;10494665;28;20488;-71
2023/11/03 22:57:45;;;;;;;7.05;4.57;;;;;;;8.40;100.00;98457.66;10493728;28;20120;-70
2023/11/03 23:02:45;;;;;;;5.47;3.97;;;;;;;8.50;100.00;98460.53;10494466;28;20090;-70
2023/11/03 23:07:46;;;;;;;4.47;4.10;;;;;;;8.46;100.00;98445.91;10493478;28;20114;-70
2023/11/03 23:12:47;;;;;;;3.83;3.22;;;;;;;8.51;100.00;98451.38;10498554;28;20036;-70